ADDS METAR Data INFO
IDs: Format: Raw Decoded Include TAF

Data at: 0156 UTC 19 Jul 2018

KAMA 190153Z 13010KT 10SM BKN120 33/11 A2996 RMK AO2 SLP083 T03280106
KAMA 190053Z 17007KT 10SM CLR 36/11 A2996 RMK AO2 SLP081 T03560106
KAMA 182353Z 19010KT 10SM SCT110 37/11 A2996 RMK AO2 SLP082 T03670106 10378 20344 56012
KAMA 182253Z 19010KT 10SM SCT110 38/11 A2997 RMK AO2 LTG DSNT W SLP083 T03780106
KAMA 182153Z 18005KT 10SM CLR 38/11 A2998 RMK AO2 SLP087 T03780106
KAMA 182053Z 10SM CLR 37/09 A3000 RMK AO2 SLP092 T03720094 58019
KAMA 181953Z 19012G19KT 10SM CLR 37/09 A3003 RMK AO2 SLP101 T03720094
KAMA 181853Z 20013G16KT 10SM FEW120 37/12 A3004 RMK AO2 SLP107 T03670117
KAMA 181753Z 21009KT 10SM FEW120 36/13 A3006 RMK AO2 SLP114 T03560133 10356 20200 56012
KAMA 181653Z 22011G18KT 10SM CLR 33/13 A3008 RMK AO2 SLP118 T03330133
KAMA 181612Z 24015KT 10SM CLR 32/13 A3008 RMK AO2 T03170133
KAMA 181553Z 23013KT 10SM CLR 31/13 A3008 RMK AO2 SLP123 T03060128
KAMA 181453Z 20008KT 10SM CLR 27/15 A3010 RMK AO2 SLP134 T02670150 51003
KAMA 181353Z 17010KT 10SM CLR 25/16 A3010 RMK AO2 SLP132 T02500161
KAMA 181253Z 13007KT 10SM CLR 22/18 A3009 RMK AO2 SLP130 T02170178
KAMA 181153Z 14008KT 10SM CLR 20/18 A3009 RMK AO2 SLP129 T02000178 10250 20194 58009
KAMA 181053Z 07005KT 10SM CLR 20/17 A3010 RMK AO2 SLP132 T02000172
KAMA 180953Z AUTO 01006KT 10SM SCT110 21/17 A3011 RMK AO2 SLP135 T02060172
KAMA 180853Z AUTO 36011KT 10SM FEW120 23/15 A3012 RMK AO2 SLP137 T02280150 53008
KAMA 180753Z AUTO 26006KT 10SM CLR 24/12 A3009 RMK AO2 SLP125 T02390117
KAMA 180653Z AUTO 22006KT 10SM CLR 23/13 A3010 RMK AO2 SLP130 T02280128
KAMA 180553Z AUTO 19009KT 10SM CLR 24/12 A3009 RMK AO2 SLP127 T02440122 10344 20244 403610200 51011
KAMA 180453Z AUTO 18010KT 10SM CLR 26/13 A3009 RMK AO2 SLP125 T02610133
KAMA 180353Z 19009KT 10SM CLR 26/14 A3009 RMK AO2 SLP125 T02610139
KAMA 180253Z 21008KT 10SM CLR 26/14 A3006 RMK AO2 SLP117 T02610139 50000
KAMA 180153Z 21008KT 10SM CLR 29/13 A3006 RMK AO2 SLP117 T02890133
KAMA 180053Z 23009KT 10SM CLR 33/12 A3006 RMK AO2 SLP118 T03280117
KAMA 172353Z 22012KT 10SM CLR 34/12 A3006 RMK AO2 SLP118 T03440117 10361 20333 58011
KAMA 172253Z 21013KT 10SM CLR 36/12 A3008 RMK AO2 SLP121 T03560117
KAMA 172153Z 22012G17KT 10SM CLR 36/13 A3008 RMK AO2 SLP122 T03610128
KAMA 172053Z 21013G17KT 10SM CLR 35/13 A3010 RMK AO2 SLP128 T03500133 58017
KAMA 171953Z 20013G18KT 10SM CLR 35/13 A3012 RMK AO2 SLP134 T03500128
KAMA 171853Z 19007KT 10SM CLR 34/13 A3013 RMK AO2 SLP141 T03390133
KAMA 171753Z 19012KT 10SM CLR 34/14 A3015 RMK AO2 SLP147 T03390144 10344 20200 58005
KAMA 171653Z 19010KT 10SM CLR 33/14 A3016 RMK AO2 SLP150 T03330144
KAMA 171553Z 24009KT 10SM CLR 32/15 A3016 RMK AO2 SLP152 T03170150
KAMA 171453Z 23008KT 10SM CLR 29/16 A3017 RMK AO2 SLP156 T02890156 53009